Weather History for KHAI - July, 2013

Change the Weather History Date:

Monday, July 1, 2013

  Actual Average Record
Temperature  
Mean Temperature 64 °F -  
Max Temperature 72 °F 81 °F 96 °F (1953)
Min Temperature 57 °F 58 °F 42 °F (1950)
Growing Degree Days 14 (Base 50)    
Moisture  
Dew Point 49 °F    
Average Humidity 56    
Maximum Humidity 74    
Minimum Humidity 39    
Precipitation  
Precipitation 0.00 in - - ()
Sea Level Pressure  
Sea Level Pressure 30.02 in    
Wind  
Wind Speed 7 mph (NE)    
Max Wind Speed 17 mph    
Max Gust Speed 24 mph    
Visibility 10 miles    
Events      
Averages and records for this station are not official NWS values.
T = Trace of Precipitation, MM = Missing Value Source: NWS Daily Summary

Daily Weather History Graph

Daily Weather History Graph

Search for Another Location

Airport or City:

Trip Planner

Search our weather history database for the weather conditions in past years. The results will help you decide how hot, cold, wet, or windy it might be!

Date:

Astronomy

Jul. 01, 2013 Rise Set
Actual Time 6:10 AM EDT 9:21 PM EDT
Civil Twilight 5:36 AM EDT 9:55 PM EDT
Nautical Twilight 4:52 AM EDT 10:39 PM EDT
Astronomical Twilight 3:59 AM EDT 11:32 PM EDT
Moon 1:44 AM EDT (7/1) 3:32 PM EDT (7/1)
Length of Visible Light 16h 19m
Length of Day
15h 10m
Waning Crescent, 35% of the Moon is Illuminated
Jul 1
Waning Crescent
Jul 8
New
Jul 15
First Quarter
Jul 22
Full
Jul 29
Last Quarter

Hourly Weather History & Observations

Time (EDT) Temp. Dew Point Humidity Pressure Visibility Wind Dir Wind Speed Gust Speed Precip Events Conditions
12:15 AM 63.1 °F 54.9 °F 74% 29.97 in 10.0 mi NE 4.6 mph - N/A   Clear
12:34 AM 62.8 °F 52.0 °F 68% 29.97 in 10.0 mi NE 4.6 mph - N/A   Clear
12:54 AM 62.1 °F 49.6 °F 64% 29.97 in 10.0 mi North 4.6 mph - N/A   Clear
1:15 AM 61.5 °F 46.9 °F 59% 29.97 in 10.0 mi NNE 3.5 mph - N/A   Clear
1:34 AM 61.3 °F 44.8 °F 55% 29.97 in 10.0 mi NE 4.6 mph - N/A   Clear
1:54 AM 60.4 °F 43.7 °F 54% 29.97 in 10.0 mi NE 5.8 mph - N/A   Clear
2:15 AM 59.5 °F 43.3 °F 55% 29.97 in 10.0 mi Calm Calm - N/A   Clear
2:34 AM 58.8 °F 43.2 °F 56% 29.97 in 10.0 mi NNE 3.5 mph - N/A   Clear
2:55 AM 58.5 °F 43.5 °F 58% 29.97 in 10.0 mi North 3.5 mph - N/A   Clear
3:15 AM 57.2 °F 43.2 °F 59% 29.97 in 10.0 mi North 3.5 mph - N/A   Clear
3:34 AM 57.2 °F 41.7 °F 56% 29.98 in 10.0 mi Calm Calm - N/A   Clear
3:55 AM 57.6 °F 41.2 °F 54% 29.97 in 10.0 mi Calm Calm - N/A   Clear
4:15 AM 57.4 °F 41.5 °F 56% 29.98 in 10.0 mi North 3.5 mph - N/A   Clear
4:34 AM 57.6 °F 41.9 °F 56% 29.98 in 10.0 mi North 3.5 mph - N/A   Clear
4:55 AM 58.1 °F 42.3 °F 56% 29.98 in 10.0 mi NE 4.6 mph - N/A   Clear
5:14 AM 58.3 °F 43.0 °F 57% 29.98 in 10.0 mi NE 4.6 mph - N/A   Clear
5:34 AM 58.6 °F 43.3 °F 57% 29.98 in 10.0 mi NNE 4.6 mph - N/A   Clear
5:55 AM 58.8 °F 44.1 °F 58% 29.98 in 10.0 mi NNE 4.6 mph - N/A   Clear
6:14 AM 59.0 °F 44.8 °F 59% 29.98 in 10.0 mi NNE 6.9 mph - N/A   Clear
6:34 AM 59.4 °F 45.1 °F 59% 29.99 in 10.0 mi NE 5.8 mph - N/A   Clear
6:54 AM 59.9 °F 45.5 °F 59% 30.00 in 10.0 mi ENE 8.1 mph - N/A   Clear
7:14 AM 60.6 °F 45.1 °F 57% 30.00 in 10.0 mi NE 6.9 mph - N/A   Clear
7:35 AM 60.8 °F 45.1 °F 56% 30.00 in 10.0 mi NE 9.2 mph - N/A   Clear
7:54 AM 60.8 °F 45.5 °F 57% 30.00 in 10.0 mi NE 8.1 mph - N/A   Clear
8:14 AM 61.2 °F 45.7 °F 57% 30.00 in 10.0 mi NE 9.2 mph - N/A   Clear
8:35 AM 61.2 °F 46.2 °F 58% 30.01 in 10.0 mi NE 6.9 mph - N/A   Clear
8:54 AM 61.7 °F 46.4 °F 57% 30.01 in 10.0 mi NE 10.4 mph - N/A   Clear
9:15 AM 62.8 °F 47.7 °F 58% 30.02 in 10.0 mi NE 8.1 mph - N/A   Clear
9:34 AM 63.7 °F 49.1 °F 59% 30.02 in 10.0 mi NE 6.9 mph - N/A   Scattered Clouds
9:54 AM 63.9 °F 50.0 °F 61% 30.02 in 10.0 mi NE 5.8 mph - N/A   Mostly Cloudy
10:15 AM 64.8 °F 51.3 °F 62% 30.02 in 10.0 mi NE 6.9 mph - N/A   Mostly Cloudy
10:34 AM 65.3 °F 51.1 °F 60% 30.01 in 10.0 mi NNE 4.6 mph - N/A   Scattered Clouds
10:55 AM 65.8 °F 51.6 °F 60% 30.02 in 10.0 mi NNE 5.8 mph - N/A   Scattered Clouds
11:15 AM 67.5 °F 52.9 °F 59% 30.01 in 10.0 mi NNE 5.8 mph - N/A   Scattered Clouds
11:34 AM 70.0 °F 52.0 °F 53% 30.02 in 10.0 mi NE 5.8 mph 17.3 mph N/A   Clear
11:55 AM 70.7 °F 52.3 °F 52% 30.02 in 10.0 mi NNE 8.1 mph - N/A   Clear
12:15 PM 72.0 °F 54.0 °F 53% 30.02 in 7.0 mi NNE 9.2 mph - N/A   Clear
12:34 PM 72.3 °F 53.6 °F 52% 30.02 in 7.0 mi NE 10.4 mph - N/A   Clear
12:55 PM 71.6 °F 54.7 °F 55% 30.03 in 10.0 mi ENE 13.8 mph 20.7 mph N/A   Clear
1:15 PM 70.3 °F 54.9 °F 58% 30.03 in 10.0 mi NE 9.2 mph 17.3 mph N/A   Scattered Clouds
1:34 PM 70.7 °F 55.0 °F 58% 30.02 in 10.0 mi NE 12.7 mph 19.6 mph N/A   Scattered Clouds
1:55 PM 71.8 °F 56.8 °F 59% 30.02 in 10.0 mi NE 12.7 mph 19.6 mph N/A   Clear
2:14 PM 72.7 °F 57.2 °F 58% 30.02 in 10.0 mi NE 11.5 mph 20.7 mph N/A   Scattered Clouds
2:34 PM 71.2 °F 56.7 °F 60% 30.02 in 10.0 mi ENE 17.3 mph 20.7 mph N/A   Mostly Cloudy
2:55 PM 70.3 °F 56.3 °F 61% 30.03 in 10.0 mi NE 13.8 mph 19.6 mph N/A   Overcast
3:14 PM 70.2 °F 56.5 °F 62% 30.03 in 10.0 mi NE 11.5 mph - N/A   Overcast
3:35 PM 70.3 °F 55.2 °F 59% 30.03 in 10.0 mi ENE 12.7 mph 20.7 mph N/A   Overcast
3:55 PM 70.0 °F 51.6 °F 52% 30.04 in 10.0 mi NE 11.5 mph 20.7 mph N/A   Overcast
4:14 PM 70.0 °F 51.3 °F 51% 30.04 in 10.0 mi NE 13.8 mph 18.4 mph N/A   Overcast
4:35 PM 70.0 °F 52.0 °F 53% 30.04 in 10.0 mi NE 9.2 mph - N/A   Overcast
4:55 PM 70.0 °F 51.8 °F 52% 30.04 in 10.0 mi NE 9.2 mph 21.9 mph N/A   Overcast
5:14 PM 71.1 °F 51.6 °F 50% 30.04 in 10.0 mi NE 10.4 mph - N/A   Scattered Clouds
5:35 PM 71.6 °F 48.4 °F 44% 30.04 in 10.0 mi NE 16.1 mph 24.2 mph N/A   Mostly Cloudy
5:55 PM 71.6 °F 45.7 °F 39% 30.03 in 10.0 mi ENE 15.0 mph 20.7 mph N/A   Mostly Cloudy
6:14 PM 71.6 °F 45.9 °F 40% 30.02 in 10.0 mi ENE 15.0 mph 21.9 mph N/A   Scattered Clouds
6:35 PM 71.1 °F 44.6 °F 39% 30.03 in 10.0 mi NE 15.0 mph 19.6 mph N/A   Clear
6:54 PM 71.1 °F 46.0 °F 41% 30.04 in 10.0 mi ENE 15.0 mph 20.7 mph N/A   Mostly Cloudy
7:14 PM 70.2 °F 47.3 °F 44% 30.04 in 10.0 mi East 10.4 mph 18.4 mph N/A   Overcast
7:35 PM 69.6 °F 46.9 °F 44% 30.04 in 10.0 mi East 12.7 mph 17.3 mph N/A   Mostly Cloudy
7:54 PM 69.3 °F 48.7 °F 48% 30.05 in 10.0 mi East 8.1 mph 16.1 mph N/A   Mostly Cloudy
8:15 PM 69.4 °F 49.3 °F 49% 30.04 in 10.0 mi ENE 11.5 mph - N/A   Overcast
8:34 PM 68.5 °F 49.3 °F 50% 30.06 in 10.0 mi East 10.4 mph 17.3 mph N/A   Scattered Clouds
8:54 PM 67.6 °F 49.1 °F 51% 30.06 in 10.0 mi ENE 9.2 mph - N/A   Clear
9:15 PM 66.7 °F 49.8 °F 54% 30.06 in 10.0 mi East 9.2 mph 16.1 mph N/A   Clear
9:34 PM 66.2 °F 49.1 °F 54% 30.06 in 10.0 mi East 9.2 mph - N/A   Clear
9:55 PM 64.6 °F 49.8 °F 59% 30.07 in 10.0 mi East 6.9 mph - N/A   Clear
10:15 PM 64.0 °F 50.2 °F 61% 30.07 in 10.0 mi East 6.9 mph - N/A   Scattered Clouds
10:34 PM 64.4 °F 51.1 °F 62% 30.07 in 10.0 mi NE 4.6 mph - N/A   Mostly Cloudy
10:55 PM 64.9 °F 51.1 °F 61% 30.07 in 10.0 mi NE 3.5 mph - N/A   Overcast
11:15 PM 65.3 °F 51.6 °F 61% 30.06 in 10.0 mi NNE 5.8 mph - N/A   Overcast
11:34 PM 65.3 °F 52.0 °F 62% 30.06 in 10.0 mi NE 10.4 mph - N/A   Overcast
11:55 PM 64.8 °F 52.0 °F 63% 30.06 in 10.0 mi NE 10.4 mph 18.4 mph N/A   Overcast